Time,TemperatureF,DewpointF,PressureIn,WindDirection,WindDirectionDegrees,WindSpeedMPH,WindSpeedGustMPH,Humidity,HourlyPrecipIn,Conditions,Clouds,dailyrainin,SoftwareType,DateUTC
2013-02-11 00:02:00,27.0,21.0,30.21,ENE,68,0.4,0.9,78,0.00,,,0.00,WUHU216HW,2013-02-11 08:02:00,
2013-02-11 00:07:00,26.6,20.6,30.21,ENE,68,0.0,0.9,78,0.00,,,0.00,WUHU216HW,2013-02-11 08:07:00,
2013-02-11 00:12:00,26.8,20.8,30.21,SE,135,0.7,0.7,78,0.00,,,0.00,WUHU216HW,2013-02-11 08:12:00,
2013-02-11 00:17:00,26.8,20.8,30.20,SE,135,0.0,1.1,78,0.00,,,0.00,WUHU216HW,2013-02-11 08:17:00,
2013-02-11 00:22:00,26.6,20.6,30.20,SE,135,0.0,1.1,78,0.00,,,0.00,WUHU216HW,2013-02-11 08:22:00,
2013-02-11 00:27:00,26.5,20.8,30.21,SE,135,0.7,0.7,79,0.00,,,0.00,WUHU216HW,2013-02-11 08:27:00,
2013-02-11 00:32:00,26.3,20.4,30.20,SE,135,0.0,0.7,78,0.00,,,0.00,WUHU216HW,2013-02-11 08:32:00,
2013-02-11 00:37:00,26.3,20.4,30.20,SE,135,0.0,0.7,78,0.00,,,0.00,WUHU216HW,2013-02-11 08:37:00,
2013-02-11 00:42:00,25.9,20.0,30.20,SE,135,0.0,0.7,78,0.00,,,0.00,WUHU216HW,2013-02-11 08:42:00,
2013-02-11 00:47:00,25.7,20.1,30.20,SE,135,0.0,0.9,79,0.00,,,0.00,WUHU216HW,2013-02-11 08:47:00,
2013-02-11 00:52:00,25.6,19.6,30.20,SE,135,0.0,0.9,78,0.00,,,0.00,WUHU216HW,2013-02-11 08:52:00,
2013-02-11 00:57:00,25.4,19.8,30.19,SE,135,0.0,0.0,79,0.00,,,0.00,WUHU216HW,2013-02-11 08:57:00,
2013-02-11 01:02:00,25.2,19.6,30.19,SE,135,0.9,0.9,79,0.00,,,0.00,WUHU216HW,2013-02-11 09:02:00,
2013-02-11 01:07:00,25.0,19.4,30.19,SE,135,0.7,0.9,79,0.00,,,0.00,WUHU216HW,2013-02-11 09:07:00,
2013-02-11 01:12:00,24.8,19.3,30.19,SE,135,1.8,1.8,79,0.00,,,0.00,WUHU216HW,2013-02-11 09:12:00,
2013-02-11 01:17:00,24.8,19.3,30.19,SE,135,0.4,1.8,79,0.00,,,0.00,WUHU216HW,2013-02-11 09:17:00,
2013-02-11 01:22:00,24.8,19.3,30.19,SE,135,0.4,0.7,79,0.00,,,0.00,WUHU216HW,2013-02-11 09:22:00,
2013-02-11 01:27:00,24.8,19.6,30.19,SE,135,0.0,0.7,80,0.00,,,0.00,WUHU216HW,2013-02-11 09:27:00,
2013-02-11 01:32:00,24.5,19.3,30.19,SE,135,0.0,0.4,80,0.00,,,0.00,WUHU216HW,2013-02-11 09:32:00,
2013-02-11 01:37:00,24.3,19.4,30.19,SE,135,0.0,0.0,81,0.00,,,0.00,WUHU216HW,2013-02-11 09:37:00,
2013-02-11 01:42:00,24.1,19.2,30.19,SE,135,0.0,0.0,81,0.00,,,0.00,WUHU216HW,2013-02-11 09:42:00,
2013-02-11 01:47:00,24.1,19.4,30.19,SE,135,0.4,0.4,82,0.00,,,0.00,WUHU216HW,2013-02-11 09:47:00,
2013-02-11 01:52:00,24.1,19.4,30.19,SE,135,0.0,0.4,82,0.00,,,0.00,WUHU216HW,2013-02-11 09:52:00,
2013-02-11 01:57:00,24.1,19.4,30.19,SE,135,0.2,0.9,82,0.00,,,0.00,WUHU216HW,2013-02-11 09:57:00,
2013-02-11 02:02:00,24.1,19.2,30.20,SE,135,0.0,0.9,81,0.00,,,0.00,WUHU216HW,2013-02-11 10:02:00,
2013-02-11 02:07:00,24.1,19.2,30.19,SE,135,0.0,0.4,81,0.00,,,0.00,WUHU216HW,2013-02-11 10:07:00,
2013-02-11 02:12:00,23.9,19.3,30.19,SE,135,0.0,0.0,82,0.00,,,0.00,WUHU216HW,2013-02-11 10:12:00,
2013-02-11 02:17:00,23.9,19.3,30.19,SE,135,0.4,0.4,82,0.00,,,0.00,WUHU216HW,2013-02-11 10:17:00,
2013-02-11 02:22:00,23.8,19.1,30.19,SE,135,0.0,0.9,82,0.00,,,0.00,WUHU216HW,2013-02-11 10:22:00,
2013-02-11 02:27:00,23.9,19.3,30.19,SE,135,0.0,0.9,82,0.00,,,0.00,WUHU216HW,2013-02-11 10:27:00,
2013-02-11 02:32:00,23.9,19.0,30.19,SE,135,0.0,0.0,81,0.00,,,0.00,WUHU216HW,2013-02-11 10:32:00,
2013-02-11 02:37:00,23.9,19.0,30.19,SE,135,0.4,0.4,81,0.00,,,0.00,WUHU216HW,2013-02-11 10:37:00,
2013-02-11 02:42:00,23.8,19.1,30.19,SE,135,0.0,0.4,82,0.00,,,0.00,WUHU216HW,2013-02-11 10:42:00,
2013-02-11 02:47:00,23.6,18.9,30.19,SE,135,0.0,0.2,82,0.00,,,0.00,WUHU216HW,2013-02-11 10:47:00,
2013-02-11 02:52:00,23.6,19.2,30.19,SE,135,0.0,0.0,83,0.00,,,0.00,WUHU216HW,2013-02-11 10:52:00,
2013-02-11 02:57:00,23.4,19.0,30.19,SE,135,0.7,0.7,83,0.00,,,0.00,WUHU216HW,2013-02-11 10:57:00,
2013-02-11 03:02:00,23.4,19.0,30.19,SE,135,0.0,0.7,83,0.00,,,0.00,WUHU216HW,2013-02-11 11:02:00,
2013-02-11 03:07:00,23.4,19.0,30.19,SE,135,0.0,0.4,83,0.00,,,0.00,WUHU216HW,2013-02-11 11:07:00,
2013-02-11 03:12:00,23.4,19.0,30.19,SE,135,0.4,0.4,83,0.00,,,0.00,WUHU216HW,2013-02-11 11:12:00,
2013-02-11 03:17:00,23.4,19.0,30.18,SE,135,0.0,0.4,83,0.00,,,0.00,WUHU216HW,2013-02-11 11:17:00,
2013-02-11 03:22:00,23.4,19.0,30.18,SE,135,1.1,1.1,83,0.00,,,0.00,WUHU216HW,2013-02-11 11:22:00,
2013-02-11 03:27:00,23.4,19.0,30.19,SE,135,0.0,1.1,83,0.00,,,0.00,WUHU216HW,2013-02-11 11:27:00,
2013-02-11 03:32:00,23.2,18.5,30.19,SE,135,0.0,0.4,82,0.00,,,0.00,WUHU216HW,2013-02-11 11:32:00,
2013-02-11 03:37:00,23.0,18.4,30.19,SE,135,0.0,0.0,82,0.00,,,0.00,WUHU216HW,2013-02-11 11:37:00,
2013-02-11 03:42:00,22.9,18.7,30.19,SE,135,0.4,0.4,84,0.00,,,0.00,WUHU216HW,2013-02-11 11:42:00,
2013-02-11 03:47:00,22.9,18.7,30.19,SE,135,0.0,0.4,84,0.00,,,0.00,WUHU216HW,2013-02-11 11:47:00,
2013-02-11 03:52:00,22.7,18.5,30.19,SE,135,0.4,0.9,84,0.00,,,0.00,WUHU216HW,2013-02-11 11:52:00,
2013-02-11 03:57:00,22.7,18.5,30.19,SE,135,0.4,0.9,84,0.00,,,0.00,WUHU216HW,2013-02-11 11:57:00,
2013-02-11 04:02:00,22.9,18.7,30.19,SE,135,0.2,0.9,84,0.00,,,0.00,WUHU216HW,2013-02-11 12:02:00,
2013-02-11 04:07:00,22.9,18.7,30.19,SE,135,0.7,0.9,84,0.00,,,0.00,WUHU216HW,2013-02-11 12:07:00,
2013-02-11 04:12:00,22.9,18.7,30.19,SE,135,1.1,1.1,84,0.00,,,0.00,WUHU216HW,2013-02-11 12:12:00,
2013-02-11 04:17:00,22.9,18.7,30.20,SE,135,0.4,1.1,84,0.00,,,0.00,WUHU216HW,2013-02-11 12:17:00,
2013-02-11 04:22:00,23.0,18.9,30.20,SE,135,0.0,1.1,84,0.00,,,0.00,WUHU216HW,2013-02-11 12:22:00,
2013-02-11 04:27:00,23.0,18.9,30.20,SE,135,1.1,1.1,84,0.00,,,0.00,WUHU216HW,2013-02-11 12:27:00,
2013-02-11 04:32:00,23.0,18.9,30.20,SE,135,0.0,1.1,84,0.00,,,0.00,WUHU216HW,2013-02-11 12:32:00,
2013-02-11 04:37:00,23.0,18.6,30.20,SE,135,0.0,1.1,83,0.00,,,0.00,WUHU216HW,2013-02-11 12:37:00,
2013-02-11 04:42:00,22.9,18.5,30.20,SE,135,0.0,0.0,83,0.00,,,0.00,WUHU216HW,2013-02-11 12:42:00,
2013-02-11 04:47:00,22.7,18.3,30.21,SE,135,0.0,0.0,83,0.00,,,0.00,WUHU216HW,2013-02-11 12:47:00,
2013-02-11 04:52:00,22.3,18.2,30.21,SE,135,0.7,0.7,84,0.00,,,0.00,WUHU216HW,2013-02-11 12:52:00,
2013-02-11 04:57:00,22.1,18.3,30.21,SE,135,0.7,0.9,85,0.00,,,0.00,WUHU216HW,2013-02-11 12:57:00,
2013-02-11 05:02:00,22.0,18.1,30.21,SE,135,0.7,1.1,85,0.00,,,0.00,WUHU216HW,2013-02-11 13:02:00,
2013-02-11 05:07:00,22.0,18.1,30.22,SE,135,1.1,1.1,85,0.00,,,0.00,WUHU216HW,2013-02-11 13:07:00,
2013-02-11 05:12:00,22.0,18.4,30.22,SE,135,1.1,1.3,86,0.00,,,0.00,WUHU216HW,2013-02-11 13:12:00,
2013-02-11 05:17:00,22.0,18.1,30.22,NNE,23,1.6,1.8,85,0.00,,,0.00,WUHU216HW,2013-02-11 13:17:00,
2013-02-11 05:22:00,22.1,18.3,30.22,NE,45,1.8,1.8,85,0.00,,,0.00,WUHU216HW,2013-02-11 13:22:00,
2013-02-11 05:27:00,22.3,18.5,30.22,East,90,1.8,1.8,85,0.00,,,0.00,WUHU216HW,2013-02-11 13:27:00,
2013-02-11 05:32:00,22.3,18.5,30.22,East,90,1.8,1.8,85,0.00,,,0.00,WUHU216HW,2013-02-11 13:32:00,
2013-02-11 06:02:00,21.1,16.9,30.21,East,90,0.4,0.4,84,0.00,,,0.00,WUHU216HW,2013-02-11 14:02:00,
2013-02-11 07:02:00,20.0,16.7,30.21,ESE,113,0.2,0.2,87,0.00,,,0.00,WUHU216HW,2013-02-11 15:02:00,
2013-02-11 08:02:00,21.1,17.2,30.22,SSE,158,1.1,1.1,85,0.00,,,0.00,WUHU216HW,2013-02-11 16:02:00,
2013-02-11 09:02:00,25.6,20.5,30.23,SSW,203,1.3,1.3,81,0.00,,,0.00,WUHU216HW,2013-02-11 17:02:00,
2013-02-11 10:02:00,32.8,24.4,30.23,South,180,4.7,4.7,71,0.00,,,0.00,WUHU216HW,2013-02-11 18:02:00,
2013-02-11 12:02:00,44.1,28.0,30.22,South,180,0.2,2.0,53,0.00,,,0.00,WUHU216HW,2013-02-11 20:02:00,
2013-02-11 12:07:00,44.1,27.5,30.22,SSW,203,0.4,2.0,52,0.00,,,0.00,WUHU216HW,2013-02-11 20:07:00,
2013-02-11 12:12:00,44.3,27.7,30.22,SSW,203,0.7,2.5,52,0.00,,,0.00,WUHU216HW,2013-02-11 20:12:00,
2013-02-11 12:17:00,45.0,28.5,30.22,SSW,203,1.8,2.5,52,0.00,,,0.00,WUHU216HW,2013-02-11 20:17:00,
2013-02-11 12:22:00,45.2,28.5,30.22,South,180,0.4,2.5,52,0.00,,,0.00,WUHU216HW,2013-02-11 20:22:00,
2013-02-11 12:27:00,45.5,28.4,30.22,NNE,23,1.8,1.8,51,0.00,,,0.00,WUHU216HW,2013-02-11 20:27:00,
2013-02-11 12:32:00,45.5,27.5,30.22,NNE,23,4.7,4.7,49,0.00,,,0.00,WUHU216HW,2013-02-11 20:32:00,
2013-02-11 12:37:00,45.2,27.6,30.22,NNE,23,4.0,4.7,50,0.00,,,0.00,WUHU216HW,2013-02-11 20:37:00,
2013-02-11 12:42:00,45.2,28.1,30.22,NW,315,1.3,4.0,51,0.00,,,0.00,WUHU216HW,2013-02-11 20:42:00,
2013-02-11 12:47:00,45.4,28.3,30.22,North,0,2.0,4.0,51,0.00,,,0.00,WUHU216HW,2013-02-11 20:47:00,
2013-02-11 12:52:00,45.9,28.8,30.22,North,0,4.3,5.4,51,0.00,,,0.00,WUHU216HW,2013-02-11 20:52:00,
2013-02-11 12:57:00,45.9,29.3,30.22,NW,315,1.3,5.4,52,0.00,,,0.00,WUHU216HW,2013-02-11 20:57:00,
2013-02-11 13:02:00,46.4,30.2,30.22,North,0,3.8,4.5,53,0.00,,,0.00,WUHU216HW,2013-02-11 21:02:00,
2013-02-11 13:07:00,46.8,30.1,30.22,North,0,2.7,3.8,52,0.00,,,0.00,WUHU216HW,2013-02-11 21:07:00,
2013-02-11 13:12:00,47.2,29.4,30.22,North,0,5.1,5.1,50,0.00,,,0.00,WUHU216HW,2013-02-11 21:12:00,
2013-02-11 13:17:00,46.8,29.2,30.22,North,0,4.3,6.0,50,0.00,,,0.00,WUHU216HW,2013-02-11 21:17:00,
2013-02-11 13:22:00,46.3,29.5,30.22,WNW,293,2.9,6.9,52,0.00,,,0.00,WUHU216HW,2013-02-11 21:22:00,
2013-02-11 13:27:00,46.6,30.3,30.22,North,0,4.0,6.9,53,0.00,,,0.00,WUHU216HW,2013-02-11 21:27:00,
2013-02-11 13:32:00,47.0,30.3,30.22,North,0,4.0,5.1,52,0.00,,,0.00,WUHU216HW,2013-02-11 21:32:00,
2013-02-11 13:37:00,46.8,29.6,30.22,ENE,68,2.9,7.2,51,0.00,,,0.00,WUHU216HW,2013-02-11 21:37:00,
2013-02-11 13:42:00,47.0,29.7,30.22,NNW,338,2.7,7.2,51,0.00,,,0.00,WUHU216HW,2013-02-11 21:42:00,
2013-02-11 13:47:00,47.3,30.5,30.22,NNW,338,2.5,5.4,52,0.00,,,0.00,WUHU216HW,2013-02-11 21:47:00,
2013-02-11 13:52:00,47.9,31.1,30.21,NE,45,2.7,5.6,52,0.00,,,0.00,WUHU216HW,2013-02-11 21:52:00,
2013-02-11 13:57:00,48.2,30.9,30.21,NNE,23,4.5,5.6,51,0.00,,,0.00,WUHU216HW,2013-02-11 21:57:00,
2013-02-11 14:02:00,48.6,31.2,30.21,North,0,4.7,6.5,51,0.00,,,0.00,WUHU216HW,2013-02-11 22:02:00,
2013-02-11 14:07:00,48.8,31.4,30.21,North,0,2.2,6.9,51,0.00,,,0.00,WUHU216HW,2013-02-11 22:07:00,
2013-02-11 14:12:00,49.5,32.6,30.21,NNW,338,5.4,6.9,52,0.00,,,0.00,WUHU216HW,2013-02-11 22:12:00,
2013-02-11 14:17:00,49.5,32.1,30.22,NNW,338,2.5,6.5,51,0.00,,,0.00,WUHU216HW,2013-02-11 22:17:00,
2013-02-11 14:22:00,49.3,32.4,30.22,North,0,2.5,6.0,52,0.00,,,0.00,WUHU216HW,2013-02-11 22:22:00,
2013-02-11 14:27:00,49.1,32.2,30.22,NNW,338,6.9,6.9,52,0.00,,,0.00,WUHU216HW,2013-02-11 22:27:00,
2013-02-11 14:32:00,49.5,32.1,30.22,North,0,6.5,6.9,51,0.00,,,0.00,WUHU216HW,2013-02-11 22:32:00,
2013-02-11 14:37:00,49.7,32.8,30.22,NNW,338,4.0,6.7,52,0.00,,,0.00,WUHU216HW,2013-02-11 22:37:00,
2013-02-11 14:42:00,49.9,32.9,30.22,NNW,338,3.8,7.8,52,0.00,,,0.00,WUHU216HW,2013-02-11 22:42:00,
2013-02-11 14:47:00,49.9,33.4,30.23,WNW,293,3.4,8.1,53,0.00,,,0.00,WUHU216HW,2013-02-11 22:47:00,
2013-02-11 14:52:00,49.5,33.0,30.23,NNW,338,3.4,11.2,53,0.00,,,0.00,WUHU216HW,2013-02-11 22:52:00,
2013-02-11 14:57:00,49.3,33.3,30.23,NNW,338,9.2,11.2,54,0.00,,,0.00,WUHU216HW,2013-02-11 22:57:00,
2013-02-11 15:02:00,49.3,33.8,30.23,NNW,338,3.8,10.5,55,0.00,,,0.00,WUHU216HW,2013-02-11 23:02:00,
2013-02-11 15:07:00,49.3,33.8,30.23,NW,315,3.4,8.7,55,0.00,,,0.00,WUHU216HW,2013-02-11 23:07:00,
2013-02-11 15:12:00,49.3,33.3,30.23,NNW,338,7.6,8.7,54,0.00,,,0.00,WUHU216HW,2013-02-11 23:12:00,
2013-02-11 15:17:00,49.3,33.3,30.22,North,0,8.3,10.1,54,0.00,,,0.00,WUHU216HW,2013-02-11 23:17:00,
2013-02-11 15:22:00,49.1,33.7,30.23,NW,315,2.5,10.1,55,0.00,,,0.00,WUHU216HW,2013-02-11 23:22:00,
2013-02-11 15:27:00,49.7,33.7,30.23,NNW,338,1.8,6.5,54,0.00,,,0.00,WUHU216HW,2013-02-11 23:27:00,
2013-02-11 15:32:00,49.5,33.5,30.23,NNE,23,4.5,10.5,54,0.00,,,0.00,WUHU216HW,2013-02-11 23:32:00,
2013-02-11 15:37:00,49.3,33.8,30.23,North,0,3.8,10.5,55,0.00,,,0.00,WUHU216HW,2013-02-11 23:37:00,
2013-02-11 15:42:00,49.5,33.5,30.23,WNW,293,5.8,6.0,54,0.00,,,0.00,WUHU216HW,2013-02-11 23:42:00,
2013-02-11 15:47:00,49.5,33.5,30.23,NNE,23,7.4,8.5,54,0.00,,,0.00,WUHU216HW,2013-02-11 23:47:00,
2013-02-11 15:52:00,49.3,33.3,30.23,North,0,6.9,8.5,54,0.00,,,0.00,WUHU216HW,2013-02-11 23:52:00,
2013-02-11 15:57:00,49.3,33.3,30.23,NNW,338,4.9,8.1,54,0.00,,,0.00,WUHU216HW,2013-02-11 23:57:00,
2013-02-11 16:02:00,49.1,33.1,30.23,North,0,6.9,7.6,54,0.00,,,0.00,WUHU216HW,2013-02-12 00:02:00,
2013-02-11 16:07:00,48.6,32.7,30.23,NNW,338,9.8,9.8,54,0.00,,,0.00,WUHU216HW,2013-02-12 00:07:00,
2013-02-11 16:12:00,48.2,32.8,30.23,NNW,338,4.7,9.8,55,0.00,,,0.00,WUHU216HW,2013-02-12 00:12:00,
2013-02-11 16:17:00,48.1,32.6,30.23,North,0,10.3,10.5,55,0.00,,,0.00,WUHU216HW,2013-02-12 00:17:00,
2013-02-11 16:22:00,48.2,32.8,30.23,North,0,7.4,10.5,55,0.00,,,0.00,WUHU216HW,2013-02-12 00:22:00,
2013-02-11 16:27:00,48.1,32.6,30.23,North,0,6.3,9.4,55,0.00,,,0.00,WUHU216HW,2013-02-12 00:27:00,
2013-02-11 16:32:00,47.5,32.0,30.23,NNW,338,4.7,9.4,55,0.00,,,0.00,WUHU216HW,2013-02-12 00:32:00,
2013-02-11 16:37:00,47.2,32.7,30.24,North,0,5.8,6.7,57,0.00,,,0.00,WUHU216HW,2013-02-12 00:37:00,
2013-02-11 16:42:00,47.0,32.5,30.24,NNW,338,8.3,8.3,57,0.00,,,0.00,WUHU216HW,2013-02-12 00:42:00,
2013-02-11 16:47:00,46.4,32.0,30.24,North,0,7.2,8.3,57,0.00,,,0.00,WUHU216HW,2013-02-12 00:47:00,
2013-02-11 16:52:00,46.4,32.0,30.23,North,0,5.4,7.2,57,0.00,,,0.00,WUHU216HW,2013-02-12 00:52:00,
2013-02-11 16:57:00,46.4,32.0,30.23,North,0,4.0,5.4,57,0.00,,,0.00,WUHU216HW,2013-02-12 00:57:00,
2013-02-11 17:02:00,46.1,32.0,30.23,North,0,4.0,4.7,58,0.00,,,0.00,WUHU216HW,2013-02-12 01:02:00,
2013-02-11 17:07:00,45.7,32.2,30.23,North,0,3.4,4.7,59,0.00,,,0.00,WUHU216HW,2013-02-12 01:07:00,
2013-02-11 17:12:00,45.5,32.0,30.23,North,0,1.3,5.6,59,0.00,,,0.00,WUHU216HW,2013-02-12 01:12:00,
2013-02-11 17:17:00,45.0,32.1,30.23,North,0,4.5,5.6,60,0.00,,,0.00,WUHU216HW,2013-02-12 01:17:00,
2013-02-11 17:22:00,44.6,32.0,30.23,North,0,3.8,4.7,61,0.00,,,0.00,WUHU216HW,2013-02-12 01:22:00,
2013-02-11 17:27:00,44.1,31.5,30.23,North,0,3.4,6.9,61,0.00,,,0.00,WUHU216HW,2013-02-12 01:27:00,
2013-02-11 17:32:00,43.7,31.6,30.23,North,0,3.6,7.4,62,0.00,,,0.00,WUHU216HW,2013-02-12 01:32:00,
2013-02-11 17:37:00,43.6,31.8,30.24,North,0,2.5,7.4,63,0.00,,,0.00,WUHU216HW,2013-02-12 01:37:00,
2013-02-11 17:42:00,43.2,31.4,30.24,North,0,2.0,5.4,63,0.00,,,0.00,WUHU216HW,2013-02-12 01:42:00,
2013-02-11 17:47:00,42.8,31.1,30.24,NNW,338,1.3,4.7,63,0.00,,,0.00,WUHU216HW,2013-02-12 01:47:00,
2013-02-11 17:52:00,42.5,31.2,30.24,WSW,248,0.7,2.5,64,0.00,,,0.00,WUHU216HW,2013-02-12 01:52:00,
2013-02-11 17:57:00,42.1,30.8,30.25,WSW,248,0.0,2.5,64,0.00,,,0.00,WUHU216HW,2013-02-12 01:57:00,
2013-02-11 18:02:00,41.6,31.1,30.25,WSW,248,0.4,2.0,66,0.00,,,0.00,WUHU216HW,2013-02-12 02:02:00,
2013-02-11 18:07:00,41.2,31.1,30.25,North,0,3.4,3.4,67,0.00,,,0.00,WUHU216HW,2013-02-12 02:07:00,
2013-02-11 18:12:00,41.4,31.2,30.25,NNE,23,1.6,3.6,67,0.00,,,0.00,WUHU216HW,2013-02-12 02:12:00,
2013-02-11 18:17:00,41.2,30.7,30.25,NNE,23,0.2,3.6,66,0.00,,,0.00,WUHU216HW,2013-02-12 02:17:00,
2013-02-11 18:22:00,40.9,30.7,30.26,NNE,23,0.9,1.3,67,0.00,,,0.00,WUHU216HW,2013-02-12 02:22:00,
2013-02-11 18:27:00,40.0,29.8,30.26,South,180,2.7,2.7,67,0.00,,,0.00,WUHU216HW,2013-02-12 02:27:00,
2013-02-11 18:32:00,39.6,29.4,30.26,South,180,1.3,2.7,67,0.00,,,0.00,WUHU216HW,2013-02-12 02:32:00,
2013-02-11 18:37:00,39.4,29.3,30.26,South,180,1.1,1.6,67,0.00,,,0.00,WUHU216HW,2013-02-12 02:37:00,
2013-02-11 18:42:00,39.2,29.5,30.26,SSE,158,1.6,2.7,68,0.00,,,0.00,WUHU216HW,2013-02-12 02:42:00,
2013-02-11 18:47:00,39.2,29.5,30.26,SSE,158,1.1,2.7,68,0.00,,,0.00,WUHU216HW,2013-02-12 02:47:00,
2013-02-11 18:52:00,38.9,29.2,30.26,SSE,158,1.6,1.8,68,0.00,,,0.00,WUHU216HW,2013-02-12 02:52:00,
2013-02-11 18:57:00,38.7,29.3,30.26,SE,135,2.5,2.5,69,0.00,,,0.00,WUHU216HW,2013-02-12 02:57:00,
2013-02-11 19:02:00,38.5,30.0,30.26,ESE,113,1.8,2.5,71,0.00,,,0.00,WUHU216HW,2013-02-12 03:02:00,
2013-02-11 19:07:00,38.5,30.0,30.26,ESE,113,1.1,2.5,71,0.00,,,0.00,WUHU216HW,2013-02-12 03:07:00,
2013-02-11 19:12:00,38.3,29.8,30.26,ESE,113,2.0,2.0,71,0.00,,,0.00,WUHU216HW,2013-02-12 03:12:00,
2013-02-11 19:17:00,38.0,29.4,30.26,ESE,113,1.1,2.9,71,0.00,,,0.00,WUHU216HW,2013-02-12 03:17:00,
2013-02-11 19:22:00,37.8,30.0,30.26,ESE,113,1.1,2.9,73,0.00,,,0.00,WUHU216HW,2013-02-12 03:22:00,
2013-02-11 19:27:00,37.6,30.1,30.27,East,90,1.6,1.8,74,0.00,,,0.00,WUHU216HW,2013-02-12 03:27:00,
2013-02-11 19:32:00,37.4,29.9,30.27,East,90,0.9,1.8,74,0.00,,,0.00,WUHU216HW,2013-02-12 03:32:00,
2013-02-11 19:37:00,37.1,29.5,30.27,ESE,113,1.8,1.8,74,0.00,,,0.00,WUHU216HW,2013-02-12 03:37:00,
2013-02-11 19:42:00,37.1,29.5,30.27,ESE,113,1.8,1.8,74,0.00,,,0.00,WUHU216HW,2013-02-12 03:42:00,
2013-02-11 19:47:00,36.9,29.3,30.27,ESE,113,1.1,2.0,74,0.00,,,0.00,WUHU216HW,2013-02-12 03:47:00,
2013-02-11 19:52:00,36.7,29.9,30.27,East,90,3.8,3.8,76,0.00,,,0.00,WUHU216HW,2013-02-12 03:52:00,
2013-02-11 19:57:00,36.7,29.9,30.27,East,90,2.2,3.8,76,0.00,,,0.00,WUHU216HW,2013-02-12 03:57:00,
2013-02-11 20:02:00,36.5,29.7,30.27,East,90,2.7,3.8,76,0.00,,,0.00,WUHU216HW,2013-02-12 04:02:00,
2013-02-11 20:07:00,36.5,30.0,30.27,East,90,2.0,2.7,77,0.00,,,0.00,WUHU216HW,2013-02-12 04:07:00,
2013-02-11 20:12:00,36.4,29.5,30.27,East,90,3.4,3.4,76,0.00,,,0.00,WUHU216HW,2013-02-12 04:12:00,
2013-02-11 20:17:00,36.4,29.5,30.27,East,90,2.9,3.4,76,0.00,,,0.00,WUHU216HW,2013-02-12 04:17:00,
2013-02-11 20:22:00,36.4,29.5,30.27,East,90,2.5,3.1,76,0.00,,,0.00,WUHU216HW,2013-02-12 04:22:00,
2013-02-11 20:27:00,36.5,30.0,30.27,East,90,1.8,3.1,77,0.00,,,0.00,WUHU216HW,2013-02-12 04:27:00,
2013-02-11 20:32:00,36.4,29.5,30.28,East,90,2.0,2.5,76,0.00,,,0.00,WUHU216HW,2013-02-12 04:32:00,
2013-02-11 20:37:00,36.0,29.2,30.28,East,90,2.5,2.5,76,0.00,,,0.00,WUHU216HW,2013-02-12 04:37:00,
2013-02-11 20:42:00,35.8,29.3,30.28,East,90,2.2,2.5,77,0.00,,,0.00,WUHU216HW,2013-02-12 04:42:00,
2013-02-11 20:47:00,36.0,29.4,30.28,East,90,2.2,2.5,77,0.00,,,0.00,WUHU216HW,2013-02-12 04:47:00,
2013-02-11 20:52:00,36.0,29.4,30.28,East,90,1.1,2.5,77,0.00,,,0.00,WUHU216HW,2013-02-12 04:52:00,
2013-02-11 20:57:00,35.5,28.6,30.28,East,90,1.1,2.2,76,0.00,,,0.00,WUHU216HW,2013-02-12 04:57:00,
2013-02-11 21:02:00,34.7,29.2,30.28,East,90,3.6,3.6,80,0.00,,,0.00,WUHU216HW,2013-02-12 05:02:00,
2013-02-11 21:07:00,35.1,29.5,30.28,East,90,1.8,3.8,80,0.00,,,0.00,WUHU216HW,2013-02-12 05:07:00,
2013-02-11 21:12:00,35.3,29.7,30.29,East,90,1.8,3.8,80,0.00,,,0.00,WUHU216HW,2013-02-12 05:12:00,
2013-02-11 21:17:00,34.9,29.3,30.28,East,90,2.0,2.5,80,0.00,,,0.00,WUHU216HW,2013-02-12 05:17:00,
2013-02-11 21:22:00,34.6,29.3,30.28,ENE,68,1.6,2.5,81,0.00,,,0.00,WUHU216HW,2013-02-12 05:22:00,
2013-02-11 21:27:00,34.7,29.7,30.28,East,90,2.2,3.1,82,0.00,,,0.00,WUHU216HW,2013-02-12 05:27:00,
2013-02-11 21:32:00,34.7,29.2,30.29,ESE,113,0.2,3.1,80,0.00,,,0.00,WUHU216HW,2013-02-12 05:32:00,
2013-02-11 21:37:00,34.0,28.1,30.29,South,180,0.0,1.8,79,0.00,,,0.00,WUHU216HW,2013-02-12 05:37:00,
2013-02-11 21:42:00,33.1,27.9,30.29,South,180,1.1,1.6,81,0.00,,,0.00,WUHU216HW,2013-02-12 05:42:00,
2013-02-11 21:47:00,32.8,27.5,30.29,NNE,23,2.0,2.0,81,0.00,,,0.00,WUHU216HW,2013-02-12 05:47:00,
2013-02-11 21:52:00,32.8,28.2,30.29,ENE,68,1.3,2.0,83,0.00,,,0.00,WUHU216HW,2013-02-12 05:52:00,
2013-02-11 21:57:00,32.4,27.8,30.29,East,90,0.9,2.2,83,0.00,,,0.00,WUHU216HW,2013-02-12 05:57:00,
2013-02-11 22:02:00,32.0,28.1,30.29,East,90,1.6,2.2,85,0.00,,,0.00,WUHU216HW,2013-02-12 06:02:00,
2013-02-11 22:07:00,32.2,28.0,30.29,East,90,1.1,2.9,84,0.00,,,0.00,WUHU216HW,2013-02-12 06:07:00,
2013-02-11 22:12:00,32.2,27.6,30.29,East,90,1.6,2.9,83,0.00,,,0.00,WUHU216HW,2013-02-12 06:12:00,
2013-02-11 22:17:00,32.2,27.6,30.29,East,90,1.3,1.8,83,0.00,,,0.00,WUHU216HW,2013-02-12 06:17:00,
2013-02-11 22:22:00,32.0,27.6,30.30,ESE,113,0.7,1.8,83,0.00,,,0.00,WUHU216HW,2013-02-12 06:22:00,
2013-02-11 22:27:00,31.5,27.0,30.29,ESE,113,0.0,1.6,83,0.00,,,0.00,WUHU216HW,2013-02-12 06:27:00,
2013-02-11 22:32:00,31.3,26.8,30.29,ESE,113,0.0,0.4,83,0.00,,,0.00,WUHU216HW,2013-02-12 06:32:00,
2013-02-11 22:37:00,31.0,27.0,30.29,East,90,1.3,1.3,85,0.00,,,0.00,WUHU216HW,2013-02-12 06:37:00,
2013-02-11 22:42:00,31.1,27.2,30.29,East,90,0.4,1.6,85,0.00,,,0.00,WUHU216HW,2013-02-12 06:42:00,
2013-02-11 22:47:00,31.9,28.4,30.29,ENE,68,1.6,2.0,87,0.00,,,0.00,WUHU216HW,2013-02-12 06:47:00,
2013-02-11 22:52:00,32.8,28.7,30.29,East,90,3.1,3.6,85,0.00,,,0.00,WUHU216HW,2013-02-12 06:52:00,
2013-02-11 22:57:00,33.3,28.9,30.29,ESE,113,1.8,3.6,84,0.00,,,0.00,WUHU216HW,2013-02-12 06:57:00,
2013-02-11 23:02:00,32.9,27.7,30.29,ESE,113,0.4,3.4,81,0.00,,,0.00,WUHU216HW,2013-02-12 07:02:00,
2013-02-11 23:07:00,32.4,27.8,30.29,ESE,113,1.1,2.0,83,0.00,,,0.00,WUHU216HW,2013-02-12 07:07:00,
2013-02-11 23:12:00,31.9,27.0,30.29,South,180,1.1,2.0,82,0.00,,,0.00,WUHU216HW,2013-02-12 07:12:00,
2013-02-11 23:17:00,31.5,27.0,30.29,South,180,0.0,1.8,83,0.00,,,0.00,WUHU216HW,2013-02-12 07:17:00,
2013-02-11 23:22:00,31.0,27.0,30.29,NNE,23,2.0,2.0,85,0.00,,,0.00,WUHU216HW,2013-02-12 07:22:00,
2013-02-11 23:27:00,31.0,27.0,30.29,NNE,23,0.0,2.0,85,0.00,,,0.00,WUHU216HW,2013-02-12 07:27:00,
2013-02-11 23:32:00,30.6,26.6,30.30,NNE,23,0.4,0.4,85,0.00,,,0.00,WUHU216HW,2013-02-12 07:32:00,
2013-02-11 23:37:00,30.6,26.6,30.30,NNE,23,0.0,0.7,85,0.00,,,0.00,WUHU216HW,2013-02-12 07:37:00,
2013-02-11 23:42:00,30.2,26.6,30.30,NNE,23,0.4,1.1,86,0.00,,,0.00,WUHU216HW,2013-02-12 07:42:00,
2013-02-11 23:47:00,30.4,27.4,30.30,East,90,0.7,1.1,88,0.00,,,0.00,WUHU216HW,2013-02-12 07:47:00,
2013-02-11 23:52:00,30.6,27.6,30.30,East,90,0.9,1.1,88,0.00,,,0.00,WUHU216HW,2013-02-12 07:52:00,
2013-02-11 23:57:00,30.2,26.6,30.31,South,180,0.2,1.8,86,0.00,,,0.00,WUHU216HW,2013-02-12 07:57:00,